createdAt,value
2023-03-05T00:00:50.433Z,98081.97
2023-03-05T00:01:53.583Z,98082.91
2023-03-05T00:02:55.401Z,98083.72
2023-03-05T00:03:58.482Z,98083.72
2023-03-05T00:05:01.338Z,98086.28
2023-03-05T00:06:04.007Z,98078.56
2023-03-05T00:07:08.976Z,98080.31
2023-03-05T00:08:12.297Z,98074.34
2023-03-05T00:09:15.436Z,98070.88
2023-03-05T00:10:17.541Z,98083.81
2023-03-05T00:11:21.616Z,98078.69
2023-03-05T00:12:23.427Z,98084.66
2023-03-05T00:13:26.644Z,98083.00
2023-03-05T00:14:28.573Z,98076.19
2023-03-05T00:15:31.357Z,98083.91
2023-03-05T00:16:33.445Z,98078.78
2023-03-05T00:17:36.303Z,98079.66
2023-03-05T00:18:38.446Z,98083.91
2023-03-05T00:19:41.173Z,98083.00
2023-03-05T00:20:43.028Z,98081.25
2023-03-05T00:21:45.773Z,98078.69
2023-03-05T00:22:47.517Z,98077.09
2023-03-05T00:23:52.208Z,98067.72
2023-03-05T00:24:53.955Z,98071.22
2023-03-05T00:25:56.788Z,98081.50
2023-03-05T00:26:59.643Z,98076.47
2023-03-05T00:28:01.478Z,98072.19
2023-03-05T00:29:04.477Z,98080.84
2023-03-05T00:30:08.024Z,98079.19
2023-03-05T00:31:12.618Z,98065.50
2023-03-05T00:32:14.586Z,98069.72
2023-03-05T00:33:17.436Z,98066.44
2023-03-05T00:34:19.777Z,98068.09
2023-03-05T00:35:22.691Z,98065.50
2023-03-05T00:36:25.263Z,98067.34
2023-03-05T00:37:28.046Z,98064.03
2023-03-05T00:38:29.811Z,98069.25
2023-03-05T00:39:34.306Z,98057.38
2023-03-05T00:40:37.561Z,98062.63
2023-03-05T00:41:40.726Z,98063.66
2023-03-05T00:42:43.048Z,98059.47
2023-03-05T00:43:46.023Z,98064.72
2023-03-05T00:44:47.804Z,98062.25
2023-03-05T00:45:50.697Z,98063.13
2023-03-05T00:46:53.349Z,98056.34
2023-03-05T00:47:56.071Z,98054.78
2023-03-05T00:48:58.302Z,98059.09
2023-03-05T00:50:01.317Z,98054.03
2023-03-05T00:51:03.574Z,98054.94
2023-03-05T00:52:25.189Z,98057.69
2023-03-05T00:53:27.190Z,98048.41
2023-03-05T00:54:30.050Z,98050.16
2023-03-05T00:55:36.033Z,98055.47
2023-03-05T00:56:38.785Z,98047.13
2023-03-05T00:57:40.751Z,98046.34
2023-03-05T00:58:44.023Z,98043.97
2023-03-05T00:59:47.676Z,98048.25
2023-03-05T01:00:50.543Z,98033.75
2023-03-05T01:01:53.382Z,98048.44
2023-03-05T01:02:55.514Z,98040.81
2023-03-05T01:03:59.574Z,98045.13
2023-03-05T01:05:01.568Z,98045.19
2023-03-05T01:06:07.406Z,98048.69
2023-03-05T01:07:09.221Z,98047.03
2023-03-05T01:08:12.750Z,98045.28
2023-03-05T01:09:15.511Z,98047.97
2023-03-05T01:10:17.312Z,98047.13
2023-03-05T01:11:40.766Z,98045.44
2023-03-05T01:12:42.848Z,98047.19
2023-03-05T01:13:45.725Z,98045.44
2023-03-05T01:14:47.575Z,98042.00
2023-03-05T01:15:51.058Z,98043.72
2023-03-05T01:16:52.960Z,98044.63
2023-03-05T01:17:56.240Z,98044.63
2023-03-05T01:18:58.092Z,98039.47
2023-03-05T01:20:00.855Z,98049.75
2023-03-05T01:21:03.693Z,98042.16
2023-03-05T01:22:06.661Z,98037.84
2023-03-05T01:23:08.496Z,98041.22
2023-03-05T01:24:11.852Z,98043.06
2023-03-05T01:25:15.007Z,98039.69
2023-03-05T01:26:18.091Z,98038.84
2023-03-05T01:27:21.684Z,98036.28
2023-03-05T01:28:24.990Z,98038.84
2023-03-05T01:29:27.192Z,98040.50
2023-03-05T01:30:30.129Z,98036.19
2023-03-05T01:31:33.823Z,98038.75
2023-03-05T01:32:36.075Z,98036.28
2023-03-05T01:33:39.451Z,98033.72
2023-03-05T01:34:42.263Z,98028.56
2023-03-05T01:35:47.509Z,98039.69
2023-03-05T01:36:50.378Z,98038.84
2023-03-05T01:37:53.336Z,98040.50
2023-03-05T01:38:55.609Z,98040.50
2023-03-05T01:39:58.797Z,98032.03
2023-03-05T01:41:00.609Z,98038.09
2023-03-05T01:42:03.681Z,98038.91
2023-03-05T01:43:21.532Z,98039.72
2023-03-05T01:44:26.798Z,98037.25
2023-03-05T01:45:31.815Z,98040.66
2023-03-05T01:46:37.316Z,98034.69
2023-03-05T01:47:39.609Z,98036.53
2023-03-05T01:48:43.541Z,98030.47
2023-03-05T01:49:45.410Z,98033.13
2023-03-05T01:50:48.236Z,98034.03
2023-03-05T01:51:56.380Z,98034.03
2023-03-05T01:53:01.276Z,98029.06
2023-03-05T01:54:05.374Z,98024.09
2023-03-05T01:55:11.315Z,98021.84
2023-03-05T01:56:13.297Z,98023.84
2023-03-05T01:57:18.336Z,98024.91
2023-03-05T01:58:21.728Z,98022.53
2023-03-05T01:59:25.615Z,98029.47
2023-03-05T02:00:29.852Z,98026.16
2023-03-05T02:01:35.552Z,98026.16
2023-03-05T02:02:37.548Z,98028.75
2023-03-05T02:03:40.600Z,98019.19
2023-03-05T02:04:45.257Z,98024.28
2023-03-05T02:05:48.454Z,98019.19
2023-03-05T02:06:52.056Z,98019.19
2023-03-05T02:07:55.901Z,98011.44
2023-03-05T02:08:58.905Z,98016.47
2023-03-05T02:10:02.105Z,98014.75
2023-03-05T02:11:04.552Z,98014.66
2023-03-05T02:12:08.394Z,98011.25
2023-03-05T02:13:12.524Z,98008.69
2023-03-05T02:14:16.843Z,98008.69
2023-03-05T02:15:19.187Z,98008.69
2023-03-05T02:16:25.248Z,98010.44
2023-03-05T02:17:29.569Z,98007.03
2023-03-05T02:18:32.467Z,98009.69
2023-03-05T02:19:47.632Z,98012.31
2023-03-05T02:20:53.878Z,98013.34
2023-03-05T02:21:57.553Z,98007.28
2023-03-05T02:23:00.433Z,98013.25
2023-03-05T02:24:02.358Z,98002.88
2023-03-05T02:25:17.184Z,98005.38
2023-03-05T02:26:18.969Z,98002.00
2023-03-05T02:27:24.327Z,98001.06
2023-03-05T02:28:28.676Z,98004.38
2023-03-05T02:29:32.846Z,97997.44
2023-03-05T02:30:35.459Z,97999.91
2023-03-05T02:31:39.203Z,98000.72
2023-03-05T02:32:41.111Z,98003.44
2023-03-05T02:33:45.202Z,98006.22
2023-03-05T02:34:48.009Z,97995.25
2023-03-05T02:35:52.440Z,97998.75
2023-03-05T02:36:55.562Z,98000.41
2023-03-05T02:38:01.278Z,97996.03
2023-03-05T02:39:03.748Z,98002.72
2023-03-05T02:40:07.836Z,98002.63
2023-03-05T02:41:10.601Z,97988.03
2023-03-05T02:42:14.228Z,97989.63
2023-03-05T02:43:17.101Z,97988.72
2023-03-05T02:44:20.122Z,97995.44
2023-03-05T02:45:22.135Z,97989.38
2023-03-05T02:46:25.032Z,97990.94
2023-03-05T02:47:27.212Z,97986.63
2023-03-05T02:48:30.158Z,97993.44
2023-03-05T02:49:32.467Z,97987.44
2023-03-05T02:50:35.546Z,97988.38
2023-03-05T02:51:38.168Z,97995.34
2023-03-05T02:52:41.916Z,97990.31
2023-03-05T02:53:49.891Z,97988.47
2023-03-05T02:54:53.914Z,97988.47
2023-03-05T02:55:57.961Z,97984.97
2023-03-05T02:57:00.747Z,97984.25
2023-03-05T02:58:02.675Z,97979.16
2023-03-05T02:59:05.611Z,97983.50
2023-03-05T03:00:09.365Z,97983.50
2023-03-05T03:01:12.350Z,97984.31
2023-03-05T03:02:14.869Z,97991.19
2023-03-05T03:03:18.096Z,97987.06
2023-03-05T03:04:19.988Z,97989.72
2023-03-05T03:05:23.606Z,97985.47
2023-03-05T03:06:26.830Z,97988.03
2023-03-05T03:07:29.946Z,97992.34
2023-03-05T03:08:31.702Z,97990.81
2023-03-05T03:09:36.440Z,97990.97
2023-03-05T03:10:38.653Z,97986.72
2023-03-05T03:11:41.379Z,97990.22
2023-03-05T03:12:44.582Z,97991.19
2023-03-05T03:13:47.485Z,97983.50
2023-03-05T03:14:49.921Z,97986.16
2023-03-05T03:16:03.599Z,97983.69
2023-03-05T03:17:06.054Z,97975.22
2023-03-05T03:18:09.404Z,97982.09
2023-03-05T03:19:13.354Z,97985.66
2023-03-05T03:20:17.992Z,97982.28
2023-03-05T03:21:22.239Z,97977.22
2023-03-05T03:22:25.113Z,97979.88
2023-03-05T03:23:27.401Z,97981.50
2023-03-05T03:24:30.945Z,97973.75
2023-03-05T03:25:35.213Z,97980.53
2023-03-05T03:26:38.629Z,97983.00
2023-03-05T03:27:40.684Z,97976.22
2023-03-05T03:28:43.892Z,97973.66
2023-03-05T03:29:45.717Z,97972.75
2023-03-05T03:30:48.781Z,97972.59
2023-03-05T03:31:51.220Z,97967.34
2023-03-05T03:32:53.985Z,97972.41
2023-03-05T03:33:56.978Z,97968.91
2023-03-05T03:35:00.369Z,97966.34
2023-03-05T03:36:04.499Z,97971.44
2023-03-05T03:37:08.567Z,97966.28
2023-03-05T03:38:12.048Z,97967.13
2023-03-05T03:39:15.114Z,97965.38
2023-03-05T03:40:17.262Z,97971.47
2023-03-05T03:41:21.480Z,97972.50
2023-03-05T03:42:23.780Z,97973.47
2023-03-05T03:43:26.666Z,97969.25
2023-03-05T03:44:29.099Z,97972.75
2023-03-05T03:45:32.001Z,97969.44
2023-03-05T03:46:33.953Z,97968.69
2023-03-05T03:47:40.157Z,97967.84
2023-03-05T03:48:41.940Z,97975.56
2023-03-05T03:49:44.769Z,97967.03
2023-03-05T03:50:46.861Z,97969.59
2023-03-05T03:51:50.420Z,97970.41
2023-03-05T03:52:52.698Z,97963.63
2023-03-05T03:53:55.866Z,97965.38
2023-03-05T03:55:01.684Z,97967.13
2023-03-05T03:56:05.025Z,97969.75
2023-03-05T03:57:08.228Z,97968.09
2023-03-05T03:58:14.672Z,97966.34
2023-03-05T03:59:16.529Z,97967.28
2023-03-05T04:00:20.479Z,97965.53
2023-03-05T04:01:22.552Z,97958.66
2023-03-05T04:02:25.492Z,97956.03
2023-03-05T04:03:29.149Z,97966.19
2023-03-05T04:04:31.881Z,97969.59
2023-03-05T04:05:33.729Z,97966.09
2023-03-05T04:06:37.621Z,97967.75
2023-03-05T04:07:39.395Z,97962.63
2023-03-05T04:08:42.155Z,97960.81
2023-03-05T04:09:44.327Z,97960.00
2023-03-05T04:10:47.098Z,97965.97
2023-03-05T04:11:48.864Z,97956.50
2023-03-05T04:12:53.318Z,97957.34
2023-03-05T04:13:55.125Z,97957.34
2023-03-05T04:15:00.520Z,97959.81
2023-03-05T04:16:02.468Z,97958.06
2023-03-05T04:17:07.466Z,97958.06
2023-03-05T04:18:09.904Z,97949.53
2023-03-05T04:19:12.849Z,97948.72
2023-03-05T04:20:14.825Z,97946.16
2023-03-05T04:21:18.189Z,97943.59
2023-03-05T04:22:20.025Z,97935.88
2023-03-05T04:23:22.874Z,97937.53
2023-03-05T04:24:24.793Z,97942.59
2023-03-05T04:25:27.608Z,97937.38
2023-03-05T04:26:34.043Z,97938.19
2023-03-05T04:27:37.468Z,97943.25
2023-03-05T04:28:41.065Z,97938.88
2023-03-05T04:29:43.866Z,97932.81
2023-03-05T04:30:48.656Z,97934.47
2023-03-05T04:31:51.442Z,97926.03
2023-03-05T04:32:53.204Z,97933.81
2023-03-05T04:33:57.014Z,97927.09
2023-03-05T04:35:00.727Z,97929.66
2023-03-05T04:36:03.463Z,97926.38
2023-03-05T04:37:05.314Z,97924.69
2023-03-05T04:38:08.502Z,97923.88
2023-03-05T04:39:10.300Z,97924.78
2023-03-05T04:40:13.799Z,97918.91
2023-03-05T04:41:15.676Z,97916.41
2023-03-05T04:42:19.992Z,97912.38
2023-03-05T04:43:22.238Z,97916.69
2023-03-05T04:44:27.014Z,97914.94
2023-03-05T04:45:28.949Z,97910.72
2023-03-05T04:46:31.740Z,97909.97
2023-03-05T04:47:34.262Z,97911.00
2023-03-05T04:48:37.308Z,97907.66
2023-03-05T04:49:39.178Z,97917.19
2023-03-05T04:50:41.986Z,97909.66
2023-03-05T04:51:46.948Z,97909.75
2023-03-05T04:52:49.796Z,97910.66
2023-03-05T04:53:51.647Z,97908.09
2023-03-05T04:54:55.024Z,97906.44
2023-03-05T04:55:57.184Z,97906.50
2023-03-05T04:57:00.034Z,97903.09
2023-03-05T04:58:02.024Z,97899.72
2023-03-05T04:59:04.935Z,97904.03
2023-03-05T05:00:14.044Z,97904.03
2023-03-05T05:01:17.567Z,97899.00
2023-03-05T05:02:19.457Z,97901.63
2023-03-05T05:03:22.286Z,97893.19
2023-03-05T05:04:24.363Z,97889.78
2023-03-05T05:05:28.944Z,97885.50
2023-03-05T05:06:31.216Z,97891.44
2023-03-05T05:07:33.932Z,97897.50
2023-03-05T05:08:36.976Z,97894.94
2023-03-05T05:09:41.145Z,97899.22
2023-03-05T05:10:42.883Z,97907.84
2023-03-05T05:11:45.627Z,97912.97
2023-03-05T05:12:47.708Z,97914.63
2023-03-05T05:13:50.605Z,97916.44
2023-03-05T05:14:52.384Z,97920.75
2023-03-05T05:15:56.988Z,97925.03
2023-03-05T05:16:59.637Z,97927.63
2023-03-05T05:18:02.412Z,97931.00
2023-03-05T05:19:04.608Z,97933.50
2023-03-05T05:20:10.877Z,97929.03
2023-03-05T05:21:13.823Z,97938.31
2023-03-05T05:22:16.744Z,97931.34
2023-03-05T05:23:18.698Z,97930.38
2023-03-05T05:24:21.458Z,97927.72
2023-03-05T05:25:23.476Z,97926.63
2023-03-05T05:26:26.415Z,97930.75
2023-03-05T05:27:28.244Z,97925.47
2023-03-05T05:28:31.338Z,97929.69
2023-03-05T05:29:34.094Z,97928.84
2023-03-05T05:30:36.161Z,97934.91
2023-03-05T05:31:41.882Z,97934.16
2023-03-05T05:32:44.125Z,97935.75
2023-03-05T05:33:49.590Z,97934.09
2023-03-05T05:34:55.174Z,97930.66
2023-03-05T05:35:58.021Z,97932.34
2023-03-05T05:36:59.882Z,97933.22
2023-03-05T05:38:03.245Z,97929.00
2023-03-05T05:39:05.579Z,97932.50
2023-03-05T05:40:09.774Z,97929.94
2023-03-05T05:41:14.733Z,97932.50
2023-03-05T05:42:18.009Z,97928.28
2023-03-05T05:43:19.834Z,97924.88
2023-03-05T05:44:23.040Z,97935.16
2023-03-05T05:45:24.907Z,97926.63
2023-03-05T05:46:28.920Z,97926.63
2023-03-05T05:47:32.165Z,97924.06
2023-03-05T05:48:36.690Z,97918.94
2023-03-05T05:49:38.549Z,97926.69
2023-03-05T05:50:41.323Z,97920.00
2023-03-05T05:51:43.122Z,97915.69
2023-03-05T05:52:45.856Z,97918.34
2023-03-05T05:53:48.111Z,97919.28
2023-03-05T05:54:50.835Z,97916.72
2023-03-05T05:55:52.925Z,97917.59
2023-03-05T05:56:55.793Z,97916.72
2023-03-05T05:57:57.561Z,97907.31
2023-03-05T05:59:00.437Z,97917.59
2023-03-05T06:00:03.660Z,97915.03
2023-03-05T06:01:16.529Z,97917.53
2023-03-05T06:02:18.328Z,97914.88
2023-03-05T06:03:23.026Z,97917.34
2023-03-05T06:04:24.993Z,97919.00
2023-03-05T06:05:27.749Z,97912.16
2023-03-05T06:06:30.290Z,97913.88
2023-03-05T06:07:33.044Z,97922.41
2023-03-05T06:08:34.789Z,97921.56
2023-03-05T06:09:37.949Z,97920.69
2023-03-05T06:10:39.712Z,97918.94
2023-03-05T06:11:42.439Z,97920.59
2023-03-05T06:12:44.352Z,97914.44
2023-03-05T06:13:47.301Z,97914.44
2023-03-05T06:14:49.310Z,97916.13
2023-03-05T06:15:58.785Z,97917.78
2023-03-05T06:17:00.740Z,97911.00
2023-03-05T06:18:03.550Z,97912.63
2023-03-05T06:19:06.794Z,97912.63
2023-03-05T06:20:10.674Z,97906.59
2023-03-05T06:21:13.879Z,97909.16
2023-03-05T06:22:17.103Z,97915.94
2023-03-05T06:23:18.887Z,97903.91
2023-03-05T06:24:22.365Z,97906.34
2023-03-05T06:25:24.589Z,97903.66
2023-03-05T06:26:27.416Z,97893.25
2023-03-05T06:27:29.204Z,97894.81
2023-03-05T06:28:32.868Z,97891.31
2023-03-05T06:29:34.611Z,97898.13
2023-03-05T06:30:37.400Z,97899.69
2023-03-05T06:31:39.651Z,97897.88
2023-03-05T06:32:42.405Z,97898.69
2023-03-05T06:33:44.715Z,97896.88
2023-03-05T06:34:48.837Z,97904.47
2023-03-05T06:35:50.650Z,97900.16
2023-03-05T06:36:53.495Z,97888.09
2023-03-05T06:37:55.339Z,97896.50
2023-03-05T06:38:58.931Z,97888.75
2023-03-05T06:40:00.768Z,97895.53
2023-03-05T06:41:06.046Z,97904.78
2023-03-05T06:42:08.919Z,97893.59
2023-03-05T06:43:10.696Z,97892.69
2023-03-05T06:44:13.961Z,97894.16
2023-03-05T06:45:15.823Z,97900.13
2023-03-05T06:46:20.871Z,97884.72
2023-03-05T06:47:22.743Z,97891.44
2023-03-05T06:48:25.497Z,97892.16
2023-03-05T06:49:27.351Z,97886.03
2023-03-05T06:50:31.893Z,97885.84
2023-03-05T06:51:35.397Z,97886.59
2023-03-05T06:52:40.388Z,97886.34
2023-03-05T06:53:43.018Z,97886.16
2023-03-05T06:54:45.889Z,97885.97
2023-03-05T06:55:47.648Z,97883.16
2023-03-05T06:56:50.751Z,97888.09
2023-03-05T06:57:52.558Z,97882.88
2023-03-05T06:58:56.062Z,97884.53
2023-03-05T06:59:57.856Z,97879.19
2023-03-05T07:01:00.660Z,97882.63
2023-03-05T07:02:02.834Z,97883.44
2023-03-05T07:03:05.972Z,97883.34
2023-03-05T07:04:08.106Z,97879.03
2023-03-05T07:05:11.450Z,97881.59
2023-03-05T07:06:15.852Z,97874.63
2023-03-05T07:07:18.624Z,97877.19
2023-03-05T07:08:20.420Z,97874.44
2023-03-05T07:09:23.306Z,97879.41
2023-03-05T07:10:25.103Z,97876.75
2023-03-05T07:11:28.232Z,97879.22
2023-03-05T07:12:30.043Z,97873.25
2023-03-05T07:13:32.858Z,97885.19
2023-03-05T07:14:34.626Z,97886.88
2023-03-05T07:15:39.977Z,97878.22
2023-03-05T07:16:41.746Z,97879.78
2023-03-05T07:17:44.809Z,97870.25
2023-03-05T07:18:47.368Z,97869.22
2023-03-05T07:19:50.090Z,97876.66
2023-03-05T07:20:51.934Z,97876.50
2023-03-05T07:21:56.055Z,97872.91
2023-03-05T07:22:57.906Z,97875.31
2023-03-05T07:24:02.243Z,97867.31
2023-03-05T07:25:04.755Z,97871.31
2023-03-05T07:26:08.077Z,97865.09
2023-03-05T07:27:09.905Z,97865.91
2023-03-05T07:28:12.925Z,97860.59
2023-03-05T07:29:15.665Z,97860.50
2023-03-05T07:30:18.248Z,97857.00
2023-03-05T07:31:22.757Z,97861.25
2023-03-05T07:32:24.585Z,97858.66
2023-03-05T07:33:27.891Z,97856.91
2023-03-05T07:34:30.203Z,97856.00
2023-03-05T07:35:32.954Z,97854.16
2023-03-05T07:36:35.060Z,97855.91
2023-03-05T07:37:39.605Z,97852.59
2023-03-05T07:38:41.567Z,97858.66
2023-03-05T07:39:46.334Z,97852.78
2023-03-05T07:40:49.347Z,97852.06
2023-03-05T07:41:52.764Z,97852.88
2023-03-05T07:43:03.616Z,97850.19
2023-03-05T07:44:09.890Z,97856.00
2023-03-05T07:45:12.929Z,97857.38
2023-03-05T07:46:16.807Z,97860.59
2023-03-05T07:47:19.601Z,97855.13
2023-03-05T07:48:21.448Z,97858.44
2023-03-05T07:49:24.500Z,97853.19
2023-03-05T07:50:26.690Z,97858.25
2023-03-05T07:51:29.489Z,97859.00
2023-03-05T07:52:32.325Z,97851.28
2023-03-05T07:53:36.091Z,97852.00
2023-03-05T07:54:41.045Z,97838.94
2023-03-05T07:55:43.860Z,97838.75
2023-03-05T07:56:46.677Z,97843.59
2023-03-05T07:57:48.481Z,97838.28
2023-03-05T07:58:51.324Z,97831.91
2023-03-05T07:59:53.617Z,97832.44
2023-03-05T08:00:56.372Z,97838.84
2023-03-05T08:01:59.676Z,97836.81
2023-03-05T08:03:01.552Z,97836.50
2023-03-05T08:04:05.072Z,97832.72
2023-03-05T08:05:08.642Z,97833.47
2023-03-05T08:06:12.807Z,97835.81
2023-03-05T08:07:15.533Z,97838.09
2023-03-05T08:08:18.625Z,97840.50
2023-03-05T08:09:22.840Z,97843.78
2023-03-05T08:10:24.675Z,97841.09
2023-03-05T08:11:28.465Z,97844.63
2023-03-05T08:12:30.482Z,97839.56
2023-03-05T08:13:33.392Z,97844.72
2023-03-05T08:14:36.096Z,97833.59
2023-03-05T08:15:38.367Z,97840.59
2023-03-05T08:16:41.186Z,97842.44
2023-03-05T08:17:43.011Z,97835.81
2023-03-05T08:18:46.375Z,97837.78
2023-03-05T08:19:49.225Z,97836.97
2023-03-05T08:20:51.700Z,97837.69
2023-03-05T08:21:55.638Z,97836.66
2023-03-05T08:22:57.502Z,97831.41
2023-03-05T08:24:00.953Z,97827.91
2023-03-05T08:25:06.203Z,97824.28
2023-03-05T08:26:13.559Z,97825.03
2023-03-05T08:27:16.296Z,97833.59
2023-03-05T08:28:19.676Z,97827.72
2023-03-05T08:29:22.462Z,97828.84
2023-03-05T08:30:27.136Z,97818.63
2023-03-05T08:31:31.199Z,97818.63
2023-03-05T08:32:33.100Z,97813.38
2023-03-05T08:33:35.954Z,97825.34
2023-03-05T08:34:38.848Z,97816.91
2023-03-05T08:35:40.736Z,97823.06
2023-03-05T08:36:43.507Z,97824.69
2023-03-05T08:37:45.739Z,97822.94
2023-03-05T08:38:48.547Z,97812.47
2023-03-05T08:39:50.302Z,97818.31
2023-03-05T08:40:54.576Z,97812.88
2023-03-05T08:41:57.332Z,97814.22
2023-03-05T08:42:59.868Z,97818.44
2023-03-05T08:44:02.903Z,97812.41
2023-03-05T08:45:05.399Z,97818.38
2023-03-05T08:46:08.642Z,97817.53
2023-03-05T08:47:10.950Z,97814.84
2023-03-05T08:48:13.740Z,97813.00
2023-03-05T08:49:16.511Z,97811.06
2023-03-05T08:50:18.897Z,97803.13
2023-03-05T08:51:25.420Z,97805.50
2023-03-05T08:52:27.452Z,97808.69
2023-03-05T08:53:30.656Z,97804.19
2023-03-05T08:54:34.457Z,97805.81
2023-03-05T08:55:37.490Z,97800.66
2023-03-05T08:56:41.828Z,97808.50
2023-03-05T08:57:43.616Z,97810.97
2023-03-05T08:58:48.030Z,97809.41
2023-03-05T08:59:50.084Z,97802.50
2023-03-05T09:00:52.938Z,97809.53
2023-03-05T09:01:55.705Z,97798.59
2023-03-05T09:02:58.038Z,97800.34
2023-03-05T09:04:01.145Z,97801.47
2023-03-05T09:05:03.592Z,97803.22
2023-03-05T09:06:08.844Z,97801.47
2023-03-05T09:07:11.337Z,97790.16
2023-03-05T09:08:14.184Z,97795.19
2023-03-05T09:09:16.050Z,97799.31
2023-03-05T09:10:19.209Z,97802.50
2023-03-05T09:11:21.897Z,97796.34
2023-03-05T09:12:26.024Z,97796.34
2023-03-05T09:13:27.902Z,97795.41
2023-03-05T09:14:30.684Z,97798.72
2023-03-05T09:15:33.530Z,97796.97
2023-03-05T09:16:36.301Z,97797.56
2023-03-05T09:17:41.680Z,97793.03
2023-03-05T09:18:43.729Z,97782.53
2023-03-05T09:19:46.506Z,97788.19
2023-03-05T09:20:48.340Z,97789.63
2023-03-05T09:21:51.507Z,97792.94
2023-03-05T09:22:54.210Z,97787.56
2023-03-05T09:23:59.663Z,97792.53
2023-03-05T09:25:02.684Z,97779.63
2023-03-05T09:26:05.456Z,97791.38
2023-03-05T09:27:08.176Z,97787.88
2023-03-05T09:28:11.466Z,97790.03
2023-03-05T09:29:14.395Z,97782.81
2023-03-05T09:30:16.936Z,97784.13
2023-03-05T09:31:19.925Z,97778.78
2023-03-05T09:32:21.822Z,97786.41
2023-03-05T09:33:24.599Z,97774.22
2023-03-05T09:34:27.912Z,97785.38
2023-03-05T09:35:29.754Z,97782.78
2023-03-05T09:36:33.079Z,97775.06
2023-03-05T09:37:35.148Z,97774.22
2023-03-05T09:38:39.171Z,97779.38
2023-03-05T09:39:41.388Z,97775.66
2023-03-05T09:40:50.300Z,97776.38
2023-03-05T09:42:06.545Z,97778.72
2023-03-05T09:43:20.339Z,97779.84
2023-03-05T09:44:27.708Z,97777.66
2023-03-05T09:45:34.354Z,97777.47
2023-03-05T09:46:44.934Z,97773.75
2023-03-05T09:47:54.522Z,97775.38
2023-03-05T09:49:02.190Z,97781.69
2023-03-05T09:50:10.512Z,97772.50
2023-03-05T09:51:16.873Z,97773.44
2023-03-05T09:52:21.370Z,97773.63
2023-03-05T09:53:32.946Z,97775.00
2023-03-05T09:54:38.509Z,97783.19
2023-03-05T09:55:43.922Z,97778.47
2023-03-05T09:56:49.290Z,97779.59
2023-03-05T09:57:54.755Z,97766.91
2023-03-05T09:59:01.883Z,97778.59
2023-03-05T10:00:08.108Z,97778.19
2023-03-05T10:01:17.069Z,97775.50
2023-03-05T10:02:22.118Z,97775.09
2023-03-05T10:03:28.145Z,97770.66
2023-03-05T10:04:41.660Z,97773.78
2023-03-05T10:06:01.469Z,97773.44
2023-03-05T10:07:08.889Z,97776.63
2023-03-05T10:08:13.545Z,97769.41
2023-03-05T10:09:20.871Z,97771.47
2023-03-05T10:10:26.733Z,97769.31
2023-03-05T10:11:41.267Z,97773.00
2023-03-05T10:12:45.803Z,97770.84
2023-03-05T10:13:47.823Z,97765.06
2023-03-05T10:14:52.109Z,97768.75
2023-03-05T10:16:01.852Z,97768.22
2023-03-05T10:17:23.048Z,97766.16
2023-03-05T10:18:32.126Z,97764.88
2023-03-05T10:19:45.350Z,97767.75
2023-03-05T10:20:56.611Z,97769.59
2023-03-05T10:22:11.294Z,97767.44
2023-03-05T10:23:30.290Z,97765.84
2023-03-05T10:24:40.522Z,97766.06
2023-03-05T10:26:01.203Z,97776.44
2023-03-05T10:27:09.310Z,97766.25
2023-03-05T10:28:17.919Z,97772.22
2023-03-05T10:29:34.731Z,97771.41
2023-03-05T10:30:54.785Z,97756.78
2023-03-05T10:32:07.857Z,97758.41
2023-03-05T10:33:15.982Z,97756.50
2023-03-05T10:34:33.243Z,97755.38
2023-03-05T10:36:07.475Z,97767.97
2023-03-05T10:37:32.059Z,97752.28
2023-03-05T10:38:44.637Z,97753.16
2023-03-05T10:39:54.226Z,97757.91
2023-03-05T10:40:56.102Z,97749.88
2023-03-05T10:42:06.085Z,97754.63
2023-03-05T10:43:19.375Z,97744.75
2023-03-05T10:44:27.665Z,97745.28
2023-03-05T10:45:33.224Z,97743.22
2023-03-05T10:46:38.218Z,97744.66
2023-03-05T10:47:45.318Z,97741.78
2023-03-05T10:48:50.605Z,97741.69
2023-03-05T10:49:54.224Z,97736.41
2023-03-05T10:51:01.290Z,97743.22
2023-03-05T10:52:06.695Z,97740.56
2023-03-05T10:53:16.709Z,97738.81
2023-03-05T10:54:25.678Z,97734.47
2023-03-05T10:55:28.525Z,97734.28
2023-03-05T10:56:31.806Z,97734.69
2023-03-05T10:57:33.568Z,97741.28
2023-03-05T10:58:36.305Z,97731.59
2023-03-05T10:59:38.208Z,97727.75
2023-03-05T11:00:41.257Z,97725.81
2023-03-05T11:02:01.877Z,97721.19
2023-03-05T11:03:06.446Z,97723.56
2023-03-05T11:04:26.434Z,97720.16
2023-03-05T11:05:47.703Z,97716.84
2023-03-05T11:06:49.988Z,97710.16
2023-03-05T11:07:52.753Z,97713.66
2023-03-05T11:08:55.498Z,97713.03
2023-03-05T11:10:16.205Z,97715.63
2023-03-05T11:11:19.602Z,97714.19
2023-03-05T11:12:24.561Z,97715.22
2023-03-05T11:13:28.102Z,97712.94
2023-03-05T11:14:33.350Z,97711.63
2023-03-05T11:15:36.154Z,97709.22
2023-03-05T11:16:50.822Z,97703.69
2023-03-05T11:18:15.584Z,97710.16
2023-03-05T11:19:20.737Z,97714.69
2023-03-05T11:20:35.045Z,97711.31
2023-03-05T11:21:37.861Z,97707.16
2023-03-05T11:22:40.817Z,97707.28
2023-03-05T11:23:43.546Z,97708.41
2023-03-05T11:24:46.658Z,97702.44
2023-03-05T11:25:56.944Z,97699.22
2023-03-05T11:26:59.384Z,97698.50
2023-03-05T11:28:04.318Z,97707.25
2023-03-05T11:29:21.319Z,97693.84
2023-03-05T11:30:27.482Z,97695.59
2023-03-05T11:31:31.343Z,97696.34
2023-03-05T11:32:34.587Z,97696.75
2023-03-05T11:33:38.353Z,97699.53
2023-03-05T11:34:40.278Z,97694.69
2023-03-05T11:35:44.790Z,97690.56
2023-03-05T11:37:03.904Z,97688.09
2023-03-05T11:38:20.564Z,97686.88
2023-03-05T11:39:24.881Z,97688.28
2023-03-05T11:40:28.258Z,97682.81
2023-03-05T11:41:35.158Z,97678.50
2023-03-05T11:42:38.301Z,97683.75
2023-03-05T11:43:42.458Z,97681.19
2023-03-05T11:44:48.385Z,97673.56
2023-03-05T11:45:52.122Z,97675.91
2023-03-05T11:46:56.732Z,97685.91
2023-03-05T11:48:03.968Z,97672.81
2023-03-05T11:49:07.877Z,97664.97
2023-03-05T11:50:19.910Z,97670.13
2023-03-05T11:51:27.492Z,97673.66
2023-03-05T11:52:32.220Z,97664.88
2023-03-05T11:53:37.076Z,97666.41
2023-03-05T11:54:43.040Z,97656.72
2023-03-05T11:55:47.948Z,97675.47
2023-03-05T11:56:53.001Z,97676.94
2023-03-05T11:58:04.318Z,97672.47
2023-03-05T11:59:13.960Z,97669.56
2023-03-05T12:00:19.331Z,97658.75
2023-03-05T12:01:22.960Z,97657.13
2023-03-05T12:02:28.210Z,97665.66
2023-03-05T12:03:34.499Z,97654.38
2023-03-05T12:04:37.708Z,97650.28
2023-03-05T12:05:41.663Z,97659.25
2023-03-05T12:06:45.942Z,97648.47
2023-03-05T12:07:50.637Z,97654.22
2023-03-05T12:08:57.527Z,97648.94
2023-03-05T12:10:00.990Z,97655.06
2023-03-05T12:11:07.403Z,97658.47
2023-03-05T12:12:18.832Z,97658.22
2023-03-05T12:13:27.875Z,97655.63
2023-03-05T12:14:35.240Z,97653.28
2023-03-05T12:16:02.071Z,97656.22
2023-03-05T12:17:08.425Z,97661.69
2023-03-05T12:18:17.729Z,97656.53
2023-03-05T12:19:35.712Z,97652.81
2023-03-05T12:20:44.367Z,97656.81
2023-03-05T12:21:50.774Z,97650.84
2023-03-05T12:22:52.702Z,97656.47
2023-03-05T12:23:58.996Z,97658.94
2023-03-05T12:25:27.064Z,97638.41
2023-03-05T12:26:56.105Z,97655.16
2023-03-05T12:27:59.516Z,97646.09
2023-03-05T12:29:01.432Z,97648.91
2023-03-05T12:30:05.657Z,97648.31
2023-03-05T12:31:27.169Z,97647.19
2023-03-05T12:32:53.988Z,97655.13
2023-03-05T12:33:56.790Z,97642.56
2023-03-05T12:35:00.730Z,97642.06
2023-03-05T12:36:37.327Z,97627.03
2023-03-05T12:38:13.622Z,97649.84